Overview Statistics Trail Chart Weather Telemetry Raw packets
 

This is the latest recevied weather packets stored in our database for station/object KK7MLS-13. If no packets are shown the sender has not sent any weather packets the latest 10 day(s).

<< 30 31 32 33 34 35 36 >>
Time Temp. Humidity Pressure Rain* Wind** Luminosity Snow
1788473877 13.89° C 83% 1010.9 hPa 0 mm - 69 W/m² -
1788473576 14.44° C 85% 1010.7 hPa 0 mm - 80 W/m² -
1788473274 14.44° C 85% 1010.5 hPa 0 mm - 115 W/m² -
1788472969 14.44° C 86% 1010.6 hPa 0 mm - 137 W/m² -
1788472667 14.44° C 88% 1010.6 hPa 0 mm - 117 W/m² -
1788472364 14.44° C 88% 1010.6 hPa 0 mm - 186 W/m² -
1788472061 14.44° C 85% 1010.7 hPa 4.83 mm - 199 W/m² -
1788471753 15.56° C 81% 1010.7 hPa 6.6 mm - 72 W/m² -
1788471452 16.67° C 74% 1010.8 hPa 0 mm - 28 W/m² -
1788471148 17.22° C 70% 1010.6 hPa 0 mm - 64 W/m² -
1788470844 16.67° C 73% 1010.4 hPa 0 mm - 206 W/m² -
1788470540 16.67° C 73% 1010.6 hPa 0 mm - 263 W/m² -
1788470239 16.11° C 74% 1010.7 hPa 0 mm - 212 W/m² -
1788469936 16.11° C 75% 1010.7 hPa 0 mm - 271 W/m² -
1788469632 15.56° C 76% 1010.7 hPa 0 mm - 265 W/m² -
1788469327 15.56° C 75% 1010.7 hPa 0 mm - 135 W/m² -
1788469026 15.56° C 76% 1010.6 hPa 0 mm - 139 W/m² -
1788468726 15.56° C 76% 1010.8 hPa 0 mm - 195 W/m² -
1788468421 15.56° C 75% 1010.7 hPa 0 mm - 156 W/m² -
1788468118 15.56° C 80% 1010.7 hPa 0 mm - 295 W/m² -
1788467813 15.56° C 79% 1010.6 hPa 0 mm - 127 W/m² -
1788467508 15.56° C 77% 1010.6 hPa 0 mm - 40 W/m² -
1788467202 15.56° C 77% 1010.4 hPa 0 mm - 129 W/m² -
1788466899 15.56° C 76% 1010.3 hPa 0 mm - 151 W/m² -
1788466598 16.11° C 76% 1010.4 hPa 0 mm - 124 W/m² -

* Rain latest hour (hover to see other rain measurements)
** Current wind speed in m/s (hover to see current wind gust speed)